Time;durP1;ratioP1;P1;durP2;ratioP2;P2;SDS_P1;SDS_P2;PMS_P1;PMS_P2;Temp;Humidity;BMP_temperature;BMP_pressure;BME280_temperature;BME280_humidity;BME280_pressure;Samples;Min_cycle;Max_cycle;Signal;HPM_P1;HPM_P2
2022/06/08 00:00:58;;;;;;;7.15;3.78;;;11.10;99.90;;;;;;5041698;28;20041;-69
2022/06/08 00:03:31;;;;;;;8.18;3.22;;;11.00;99.90;;;;;;5044675;28;20053;-69
2022/06/08 00:05:56;;;;;;;9.25;3.60;;;11.00;99.90;;;;;;5046308;28;20065;-68
2022/06/08 00:08:22;;;;;;;5.55;2.97;;;10.90;99.90;;;;;;5047826;28;20048;-68
2022/06/08 00:10:48;;;;;;;7.50;3.50;;;10.90;99.90;;;;;;5043954;28;21295;-69
2022/06/08 00:13:13;;;;;;;6.33;3.80;;;10.90;99.90;;;;;;5044263;28;20094;-74
2022/06/08 00:15:40;;;;;;;5.00;3.53;;;10.90;99.90;;;;;;5049730;28;20034;-69
2022/06/08 00:18:06;;;;;;;5.40;3.13;;;10.90;99.90;;;;;;5040704;28;20103;-69
2022/06/08 00:20:33;;;;;;;5.13;3.22;;;10.80;99.90;;;;;;5036681;28;20430;-69
2022/06/08 00:22:58;;;;;;;6.45;3.50;;;10.80;99.90;;;;;;5041936;28;20466;-68
2022/06/08 00:25:24;;;;;;;7.63;3.90;;;10.80;99.90;;;;;;5043376;28;20069;-69
2022/06/08 00:27:50;;;;;;;7.35;3.45;;;10.80;99.90;;;;;;5044529;28;20087;-69
2022/06/08 00:30:15;;;;;;;4.93;3.20;;;10.80;99.90;;;;;;5042599;28;20486;-69
2022/06/08 00:32:41;;;;;;;6.17;3.60;;;10.70;99.90;;;;;;5030974;28;20124;-69
2022/06/08 00:35:07;;;;;;;6.50;3.67;;;10.80;99.90;;;;;;5036709;28;20029;-69
2022/06/08 00:37:33;;;;;;;6.38;3.40;;;10.80;99.90;;;;;;5124230;22;20048;-68
2022/06/08 00:39:59;;;;;;;6.33;3.60;;;10.70;99.90;;;;;;5028083;28;20104;-68
2022/06/08 00:42:25;;;;;;;5.83;3.20;;;10.70;99.90;;;;;;5039608;28;20069;-68
2022/06/08 00:45:04;;;;;;;6.47;3.60;;;10.70;99.90;;;;;;5048508;28;20043;-68
2022/06/08 00:47:36;;;;;;;5.40;2.97;;;10.70;99.90;;;;;;5038379;28;20052;-68
2022/06/08 00:50:12;;;;;;;8.35;3.33;;;10.70;99.90;;;;;;5013547;28;20416;-68
2022/06/08 00:52:38;;;;;;;4.65;3.00;;;10.70;99.90;;;;;;5020865;28;20041;-68
2022/06/08 00:55:10;;;;;;;6.30;3.70;;;10.70;99.90;;;;;;5034896;28;20120;-68
2022/06/08 00:57:47;;;;;;;4.88;3.45;;;10.70;99.90;;;;;;5039092;28;20041;-68
2022/06/08 01:00:20;;;;;;;7.60;3.17;;;10.70;99.90;;;;;;5043302;28;20818;-68
2022/06/08 01:02:46;;;;;;;5.30;3.42;;;10.70;99.90;;;;;;5036123;28;20388;-68
2022/06/08 01:06:08;;;;;;;5.95;3.25;;;10.70;99.90;;;;;;5042195;28;20062;-68
2022/06/08 01:08:46;;;;;;;5.50;3.28;;;10.70;99.90;;;;;;4939817;28;20138;-69
2022/06/08 01:11:23;;;;;;;6.13;3.40;;;10.70;99.90;;;;;;4921574;29;20047;-68
2022/06/08 01:13:50;;;;;;;8.77;3.65;;;10.70;99.90;;;;;;4926990;28;20505;-68
2022/06/08 01:16:16;;;;;;;4.78;3.03;;;10.70;99.90;;;;;;4926279;29;20177;-69
2022/06/08 01:18:42;;;;;;;7.15;3.22;;;10.80;99.90;;;;;;4931919;28;20043;-68
2022/06/08 01:21:19;;;;;;;6.18;3.17;;;10.70;99.90;;;;;;5039633;28;20045;-69
2022/06/08 01:23:57;;;;;;;6.95;3.47;;;10.80;99.90;;;;;;5051144;28;20044;-68
2022/06/08 01:26:23;;;;;;;6.45;3.33;;;10.80;99.90;;;;;;5043733;28;20047;-68
2022/06/08 01:29:06;;;;;;;4.77;3.00;;;10.80;99.90;;;;;;5042308;28;20045;-68
2022/06/08 01:32:05;;;;;;;5.90;2.78;;;10.80;99.90;;;;;;5037410;28;20080;-68
2022/06/08 01:34:46;;;;;;;9.50;3.95;;;10.80;99.90;;;;;;5044176;28;20033;-68
2022/06/08 01:37:25;;;;;;;7.60;3.03;;;10.90;99.90;;;;;;5042151;28;20032;-68
2022/06/08 01:40:15;;;;;;;6.80;3.58;;;10.90;99.90;;;;;;5024004;28;20596;-68
2022/06/08 01:43:05;;;;;;;5.72;3.30;;;10.90;99.90;;;;;;5044604;28;20253;-68
2022/06/08 01:45:53;;;;;;;5.75;3.22;;;10.90;99.90;;;;;;5028357;28;20036;-68
2022/06/08 01:48:37;;;;;;;6.18;3.20;;;11.00;99.90;;;;;;5023047;28;20324;-68
2022/06/08 01:51:35;;;;;;;6.53;3.60;;;11.00;99.90;;;;;;5022932;28;20056;-68
2022/06/08 01:54:08;;;;;;;5.97;3.63;;;11.00;99.90;;;;;;5044044;28;20328;-69
2022/06/08 01:56:54;;;;;;;5.90;3.47;;;11.10;99.90;;;;;;5010663;28;20032;-68
2022/06/08 01:59:48;;;;;;;8.38;3.65;;;11.10;99.90;;;;;;5037313;28;20111;-68
2022/06/08 02:02:32;;;;;;;6.00;3.30;;;11.10;99.90;;;;;;5037505;28;20563;-68
2022/06/08 02:05:06;;;;;;;9.15;3.47;;;11.10;99.90;;;;;;5024477;28;20072;-68
2022/06/08 02:07:42;;;;;;;8.55;3.63;;;11.10;99.90;;;;;;5024778;28;20119;-68
2022/06/08 02:10:40;;;;;;;5.73;3.73;;;11.10;99.90;;;;;;5044967;28;20041;-68
2022/06/08 02:13:24;;;;;;;6.68;3.80;;;11.10;99.90;;;;;;5045703;28;20049;-68
2022/06/08 02:15:53;;;;;;;6.07;3.17;;;11.00;99.90;;;;;;5038163;28;20037;-69
2022/06/08 02:18:34;;;;;;;6.30;3.63;;;11.00;99.90;;;;;;5039909;28;20426;-69
2022/06/08 02:21:06;;;;;;;8.07;3.92;;;11.10;99.90;;;;;;5020207;28;20036;-68
2022/06/08 02:23:56;;;;;;;6.63;4.07;;;11.10;99.90;;;;;;5023506;28;20041;-68
2022/06/08 02:26:45;;;;;;;9.60;4.30;;;11.10;99.90;;;;;;5041934;28;20048;-68
2022/06/08 02:29:19;;;;;;;8.63;3.53;;;11.20;99.90;;;;;;5014624;28;20134;-68
2022/06/08 02:32:00;;;;;;;6.85;4.03;;;11.10;99.90;;;;;;5020921;28;20049;-68
2022/06/08 02:34:36;;;;;;;6.63;4.20;;;11.10;99.90;;;;;;5019828;28;20114;-69
2022/06/08 02:37:09;;;;;;;6.95;3.83;;;11.10;99.90;;;;;;5028396;28;20041;-68
2022/06/08 02:39:43;;;;;;;8.98;4.57;;;11.10;99.90;;;;;;5043290;28;20033;-68
2022/06/08 02:42:22;;;;;;;9.27;4.45;;;11.20;99.90;;;;;;5005833;28;20385;-68
2022/06/08 02:44:53;;;;;;;8.60;4.10;;;11.20;99.90;;;;;;5023369;28;20453;-69
2022/06/08 02:47:31;;;;;;;8.68;4.63;;;11.20;99.90;;;;;;5040171;28;20037;-68
2022/06/08 02:50:02;;;;;;;9.65;5.10;;;11.20;99.90;;;;;;5015995;28;20049;-68
2022/06/08 02:52:29;;;;;;;8.50;4.38;;;11.20;99.90;;;;;;5020304;28;20524;-68
2022/06/08 02:54:56;;;;;;;8.65;4.80;;;11.20;99.90;;;;;;5039397;28;20493;-69
2022/06/08 02:57:41;;;;;;;9.13;5.40;;;11.20;99.90;;;;;;5043172;28;20037;-68
2022/06/08 03:00:19;;;;;;;7.63;4.88;;;11.20;99.90;;;;;;5020845;28;20060;-68
2022/06/08 03:03:04;;;;;;;9.88;4.72;;;11.20;99.90;;;;;;5032349;28;20041;-68
2022/06/08 03:05:54;;;;;;;9.85;4.82;;;11.20;99.90;;;;;;5022002;28;20049;-68
2022/06/08 03:08:27;;;;;;;10.93;4.85;;;11.20;99.90;;;;;;5038531;28;20060;-68
2022/06/08 03:10:53;;;;;;;10.85;5.07;;;11.20;99.90;;;;;;5023676;28;20036;-69
2022/06/08 03:13:37;;;;;;;9.70;5.05;;;11.20;99.90;;;;;;5026721;28;20067;-68
2022/06/08 03:16:06;;;;;;;11.27;5.78;;;11.10;99.90;;;;;;5033232;28;20414;-69
2022/06/08 03:18:32;;;;;;;10.48;5.00;;;11.10;99.90;;;;;;5025361;28;20045;-68
2022/06/08 03:21:00;;;;;;;8.68;5.60;;;11.10;99.90;;;;;;5024443;28;20055;-68
2022/06/08 03:23:26;;;;;;;8.60;4.90;;;11.10;99.90;;;;;;5039793;28;20184;-68
2022/06/08 03:25:52;;;;;;;11.57;6.20;;;11.10;99.90;;;;;;5009597;28;20049;-68
2022/06/08 03:28:18;;;;;;;8.43;5.10;;;11.20;99.90;;;;;;5036478;28;20040;-68
2022/06/08 03:30:45;;;;;;;11.40;5.70;;;11.20;99.90;;;;;;5040709;28;20056;-68
2022/06/08 03:33:11;;;;;;;9.73;5.18;;;11.10;99.90;;;;;;5038826;28;20048;-68
2022/06/08 03:35:38;;;;;;;8.65;4.97;;;11.20;99.90;;;;;;5043444;28;20037;-69
2022/06/08 03:38:04;;;;;;;9.30;5.70;;;11.20;99.90;;;;;;5038261;28;20059;-68
2022/06/08 03:40:31;;;;;;;8.68;4.70;;;11.20;99.90;;;;;;5040390;28;20036;-69
2022/06/08 03:42:56;;;;;;;11.10;6.43;;;11.20;99.90;;;;;;5040740;28;20428;-68
2022/06/08 03:45:23;;;;;;;9.97;6.20;;;11.30;99.90;;;;;;5027765;28;20128;-68
2022/06/08 03:47:51;;;;;;;11.55;5.60;;;11.30;99.90;;;;;;5038719;28;20482;-68
2022/06/08 03:50:23;;;;;;;11.27;6.40;;;11.30;99.90;;;;;;5013999;28;20048;-69
2022/06/08 03:52:57;;;;;;;10.93;5.80;;;11.40;99.90;;;;;;5024069;28;20037;-69
2022/06/08 03:55:25;;;;;;;11.02;6.22;;;11.40;99.90;;;;;;5045454;28;20087;-68
2022/06/08 03:57:52;;;;;;;9.63;5.38;;;11.50;99.90;;;;;;5044546;28;20343;-68
2022/06/08 04:00:19;;;;;;;10.27;5.93;;;11.50;99.90;;;;;;5025998;28;20111;-69
2022/06/08 04:02:49;;;;;;;11.15;5.78;;;11.50;99.90;;;;;;5017707;28;20037;-69
2022/06/08 04:05:16;;;;;;;11.23;6.13;;;11.60;99.90;;;;;;5043762;28;20401;-68
2022/06/08 04:07:42;;;;;;;11.60;5.97;;;11.60;99.90;;;;;;5038059;28;20044;-68
2022/06/08 04:10:09;;;;;;;11.18;5.95;;;11.60;99.90;;;;;;5046530;28;20032;-69
2022/06/08 04:12:35;;;;;;;10.23;6.63;;;11.70;99.90;;;;;;5022717;28;20765;-68
2022/06/08 04:15:00;;;;;;;10.88;5.30;;;11.80;99.90;;;;;;5045543;28;20049;-69
2022/06/08 04:17:26;;;;;;;11.90;6.30;;;11.80;99.90;;;;;;5046774;28;20584;-69
2022/06/08 04:19:52;;;;;;;10.57;6.03;;;11.80;99.90;;;;;;5047634;28;20495;-69
2022/06/08 04:22:20;;;;;;;9.90;5.45;;;11.90;99.90;;;;;;5044567;28;20133;-69
2022/06/08 04:24:46;;;;;;;12.85;6.47;;;12.00;99.90;;;;;;5023718;28;20539;-68
2022/06/08 04:27:12;;;;;;;9.35;5.57;;;11.90;99.90;;;;;;5048153;28;20469;-69
2022/06/08 04:29:41;;;;;;;12.65;6.63;;;12.00;99.90;;;;;;5048946;28;20036;-69
2022/06/08 04:32:10;;;;;;;13.07;7.22;;;12.10;99.90;;;;;;5010422;28;20061;-69
2022/06/08 04:34:37;;;;;;;10.57;6.30;;;12.10;99.90;;;;;;5039985;28;20045;-68
2022/06/08 04:37:03;;;;;;;9.82;5.75;;;12.10;99.90;;;;;;5043121;28;20444;-69
2022/06/08 04:39:29;;;;;;;14.15;6.47;;;12.20;99.90;;;;;;5047758;28;20029;-69
2022/06/08 04:41:56;;;;;;;11.77;5.97;;;12.20;99.90;;;;;;5043092;28;20056;-69
2022/06/08 04:44:21;;;;;;;10.13;6.20;;;12.30;99.90;;;;;;5043339;28;20463;-68
2022/06/08 04:46:47;;;;;;;12.83;6.67;;;12.30;99.90;;;;;;5043454;28;20037;-69
2022/06/08 04:49:13;;;;;;;11.23;6.32;;;12.30;99.90;;;;;;5012558;28;20120;-68
2022/06/08 04:51:39;;;;;;;13.43;6.43;;;12.40;99.90;;;;;;5022762;28;20033;-68
2022/06/08 04:54:05;;;;;;;13.60;6.43;;;12.40;99.90;;;;;;5041484;28;20474;-68
2022/06/08 04:56:31;;;;;;;13.40;6.57;;;12.50;99.90;;;;;;5044697;28;20037;-68
2022/06/08 04:58:57;;;;;;;13.38;6.82;;;12.50;99.90;;;;;;5044312;28;20052;-69
2022/06/08 05:01:22;;;;;;;13.07;7.40;;;12.60;99.90;;;;;;5032592;28;20041;-68
2022/06/08 05:03:48;;;;;;;13.98;6.65;;;12.60;99.90;;;;;;5016778;28;20053;-69
2022/06/08 05:06:14;;;;;;;11.73;7.03;;;12.70;99.90;;;;;;5025221;28;20048;-69
2022/06/08 05:08:40;;;;;;;17.48;7.40;;;12.70;99.90;;;;;;5045171;28;20095;-68
2022/06/08 05:11:06;;;;;;;12.88;7.32;;;12.80;99.90;;;;;;5045530;28;20036;-69
2022/06/08 05:13:33;;;;;;;13.73;7.45;;;12.80;99.90;;;;;;5043989;28;20044;-68
2022/06/08 05:16:02;;;;;;;12.88;7.28;;;12.90;99.90;;;;;;5027808;28;20110;-69
2022/06/08 05:18:28;;;;;;;12.15;6.78;;;12.90;99.90;;;;;;5039114;28;20068;-69
2022/06/08 05:20:57;;;;;;;12.98;7.75;;;12.90;99.90;;;;;;5039306;28;20051;-69
2022/06/08 05:23:31;;;;;;;11.95;7.25;;;13.00;99.90;;;;;;5010422;28;20075;-69
2022/06/08 05:25:58;;;;;;;14.60;7.72;;;13.10;99.90;;;;;;5044982;28;20150;-69
2022/06/08 05:28:24;;;;;;;11.43;6.15;;;13.10;99.90;;;;;;5041484;28;20131;-69
2022/06/08 05:30:50;;;;;;;11.65;6.53;;;13.10;99.90;;;;;;5042053;28;20094;-70
2022/06/08 05:33:16;;;;;;;11.38;7.38;;;13.20;99.90;;;;;;5017262;28;20087;-69
2022/06/08 05:35:44;;;;;;;12.52;7.70;;;13.30;99.90;;;;;;5040667;28;20293;-70
2022/06/08 05:38:10;;;;;;;13.02;7.22;;;13.40;99.90;;;;;;5044983;28;20454;-72
2022/06/08 05:40:37;;;;;;;;;;;13.40;99.90;;;;;;5029684;28;20037;-70
2022/06/08 05:43:05;;;;;;;14.80;7.25;;;13.50;99.90;;;;;;5047441;28;19946;-69
2022/06/08 05:45:32;;;;;;;16.88;7.10;;;13.50;99.90;;;;;;5028434;28;20480;-71
2022/06/08 05:47:58;;;;;;;12.68;6.35;;;13.60;99.90;;;;;;5029188;28;20132;-71
2022/06/08 05:50:25;;;;;;;13.63;7.18;;;13.70;99.90;;;;;;5021977;28;20102;-72
2022/06/08 05:52:51;;;;;;;10.52;6.35;;;13.70;99.90;;;;;;5004529;28;20052;-71
2022/06/08 05:55:19;;;;;;;14.20;7.20;;;13.80;99.90;;;;;;5032798;28;20094;-70
2022/06/08 05:57:45;;;;;;;12.63;7.68;;;13.90;99.90;;;;;;5034341;28;20401;-68
2022/06/08 06:00:17;;;;;;;13.93;7.15;;;14.00;99.90;;;;;;5026889;28;20059;-68
2022/06/08 06:02:44;;;;;;;12.35;6.82;;;14.00;99.90;;;;;;5046538;28;20040;-69
2022/06/08 06:05:11;;;;;;;16.20;7.35;;;14.10;99.90;;;;;;5033203;28;20068;-68
2022/06/08 06:07:38;;;;;;;14.45;6.32;;;14.10;99.90;;;;;;5042732;28;20201;-69
2022/06/08 06:10:05;;;;;;;11.75;6.32;;;14.20;99.90;;;;;;5034943;28;20052;-69
2022/06/08 06:12:31;;;;;;;13.77;6.45;;;14.30;99.90;;;;;;5027516;28;20082;-69
2022/06/08 06:14:58;;;;;;;9.82;6.18;;;14.40;99.90;;;;;;5047842;28;20079;-68
2022/06/08 06:17:23;;;;;;;12.90;7.10;;;14.40;99.90;;;;;;5046732;28;20036;-69
2022/06/08 06:19:49;;;;;;;11.23;6.50;;;14.50;99.90;;;;;;5041882;28;20387;-68
2022/06/08 06:22:15;;;;;;;17.83;7.18;;;14.50;99.90;;;;;;5036575;28;20691;-68
2022/06/08 06:24:41;;;;;;;10.77;6.50;;;14.60;99.90;;;;;;5019138;28;20041;-69
2022/06/08 06:27:07;;;;;;;10.70;6.35;;;14.60;99.90;;;;;;5021514;28;20049;-69
2022/06/08 06:29:33;;;;;;;14.00;6.57;;;14.70;99.90;;;;;;5038200;28;20033;-69
2022/06/08 06:32:05;;;;;;;13.88;7.50;;;14.80;99.90;;;;;;5030471;28;20042;-68
2022/06/08 06:34:30;;;;;;;11.52;6.90;;;14.80;99.90;;;;;;5042031;28;20041;-69
2022/06/08 06:36:58;;;;;;;11.13;6.40;;;14.90;99.90;;;;;;5120584;22;20839;-68
2022/06/08 06:39:26;;;;;;;10.82;6.05;;;14.90;99.90;;;;;;5023280;28;20036;-68
2022/06/08 06:41:53;;;;;;;12.57;7.25;;;14.90;99.90;;;;;;5061408;28;20081;-68
2022/06/08 06:44:19;;;;;;;10.02;5.78;;;15.00;99.90;;;;;;5029419;28;20131;-68
2022/06/08 06:46:44;;;;;;;;;;;15.10;99.90;;;;;;5062282;28;20059;-68
2022/06/08 06:49:11;;;;;;;10.05;5.68;;;15.10;99.90;;;;;;5052501;28;19943;-68
2022/06/08 06:51:36;;;;;;;9.63;5.90;;;15.10;99.90;;;;;;5043821;28;20048;-68
2022/06/08 06:54:04;;;;;;;11.73;6.28;;;15.20;99.90;;;;;;5059199;28;20036;-68
2022/06/08 06:56:32;;;;;;;11.80;6.55;;;15.20;99.90;;;;;;5028709;28;20334;-68
2022/06/08 06:58:58;;;;;;;10.35;5.93;;;15.20;99.90;;;;;;5061367;28;20040;-68
2022/06/08 07:01:24;;;;;;;12.40;6.68;;;15.20;99.90;;;;;;5043858;28;20456;-70
2022/06/08 07:03:50;;;;;;;12.93;6.60;;;15.30;99.90;;;;;;5059663;28;20275;-71
2022/06/08 07:06:16;;;;;;;12.43;6.50;;;15.30;99.90;;;;;;5063913;28;20044;-69
2022/06/08 07:08:42;;;;;;;12.00;6.00;;;15.30;99.90;;;;;;5064783;28;20067;-68
2022/06/08 07:13:53;;;;;;;12.00;6.28;;;15.40;99.90;;;;;;5059930;28;20390;-68
2022/06/08 07:16:19;;;;;;;12.10;5.70;;;15.40;99.90;;;;;;5042473;28;20055;-69
2022/06/08 07:18:45;;;;;;;10.85;5.57;;;15.40;99.90;;;;;;5053711;28;20029;-68
2022/06/08 07:21:11;;;;;;;11.00;5.72;;;15.40;99.90;;;;;;5065311;28;20535;-69
2022/06/08 07:23:37;;;;;;;10.60;5.72;;;15.40;99.90;;;;;;5061543;28;20036;-69
2022/06/08 07:26:03;;;;;;;11.23;5.43;;;15.40;99.90;;;;;;5053086;28;20048;-68
2022/06/08 07:28:29;;;;;;;12.18;5.65;;;15.40;99.90;;;;;;5063383;28;20040;-68
2022/06/08 07:30:55;;;;;;;10.35;5.78;;;15.50;99.90;;;;;;5061405;28;22229;-68
2022/06/08 07:33:20;;;;;;;9.98;5.63;;;15.60;99.90;;;;;;5058842;28;20405;-68
2022/06/08 07:35:47;;;;;;;10.68;5.70;;;15.60;99.90;;;;;;5050895;28;20131;-68
2022/06/08 07:38:12;;;;;;;;;;;15.70;99.90;;;;;;5072317;28;20485;-69
2022/06/08 07:40:38;;;;;;;8.60;4.85;;;15.80;99.90;;;;;;5069910;28;19956;-68
2022/06/08 07:43:03;;;;;;;8.68;5.00;;;15.90;99.90;;;;;;5065216;28;20094;-68
2022/06/08 07:45:29;;;;;;;8.55;4.90;;;15.90;99.90;;;;;;5064636;28;20036;-68
2022/06/08 07:50:41;;;;;;;9.13;4.55;;;16.10;99.90;;;;;;5062710;28;20040;-68
2022/06/08 07:53:07;;;;;;;8.90;5.03;;;16.20;99.90;;;;;;5037604;28;20053;-69
2022/06/08 07:55:33;;;;;;;7.78;4.82;;;16.20;99.90;;;;;;5048461;28;20477;-69
2022/06/08 07:57:59;;;;;;;9.82;4.15;;;16.30;99.90;;;;;;5068763;28;20280;-70
2022/06/08 08:00:26;;;;;;;7.18;3.90;;;16.40;99.90;;;;;;5045478;28;20052;-68
2022/06/08 08:02:52;;;;;;;6.78;3.70;;;16.50;99.90;;;;;;5039498;28;20037;-68
2022/06/08 08:05:19;;;;;;;7.13;3.63;;;16.50;99.90;;;;;;5068844;28;20037;-68
2022/06/08 08:07:45;;;;;;;5.90;3.70;;;16.60;99.90;;;;;;5061670;28;20036;-68
2022/06/08 08:10:14;;;;;;;6.78;3.75;;;16.70;99.90;;;;;;5066453;28;20040;-68
2022/06/08 08:12:40;;;;;;;5.30;3.33;;;16.80;99.90;;;;;;5048099;28;20520;-68
2022/06/08 08:15:07;;;;;;;5.65;3.17;;;16.80;99.90;;;;;;5049765;28;20036;-68
2022/06/08 08:17:32;;;;;;;;;;;16.80;99.90;;;;;;5065540;28;20086;-68
2022/06/08 08:19:58;;;;;;;6.30;3.10;;;16.90;99.90;;;;;;5061927;28;20484;-69
2022/06/08 08:22:23;;;;;;;6.00;3.05;;;17.00;99.90;;;;;;5043887;28;20128;-68
2022/06/08 08:24:49;;;;;;;7.07;3.08;;;17.00;99.90;;;;;;5044092;28;20068;-68
2022/06/08 08:27:15;;;;;;;4.72;2.75;;;17.00;99.90;;;;;;5056305;28;20079;-68
2022/06/08 08:29:41;;;;;;;;;;;17.10;99.90;;;;;;5056954;28;20076;-68
2022/06/08 08:32:10;;;;;;;6.03;2.60;;;17.20;99.90;;;;;;5066085;28;19955;-68
2022/06/08 08:34:36;;;;;;;3.90;2.15;;;17.30;99.90;;;;;;5043542;28;20302;-68
2022/06/08 08:37:03;;;;;;;3.95;2.20;;;17.30;99.90;;;;;;5043999;28;20068;-68
2022/06/08 08:39:29;;;;;;;4.05;2.33;;;17.40;99.90;;;;;;5041348;28;20083;-68
2022/06/08 08:44:42;;;;;;;3.22;2.08;;;17.60;99.90;;;;;;5058124;28;20040;-68
2022/06/08 08:47:35;;;;;;;3.20;1.90;;;17.70;99.90;;;;;;5070684;28;20389;-68
2022/06/08 08:50:22;;;;;;;5.38;2.50;;;17.80;99.90;;;;;;5060466;28;20036;-68
2022/06/08 08:53:30;;;;;;;4.45;1.80;;;17.90;99.90;;;;;;5063919;28;20075;-68
2022/06/08 08:56:07;;;;;;;6.30;1.98;;;17.90;99.90;;;;;;5055475;28;20262;-68
2022/06/08 08:58:42;;;;;;;6.60;2.05;;;17.90;99.90;;;;;;5046438;28;20473;-67
2022/06/08 09:01:14;;;;;;;3.45;2.20;;;18.00;99.90;;;;;;5046661;28;20033;-68
2022/06/08 09:03:44;;;;;;;2.92;1.77;;;18.00;99.90;;;;;;5047515;28;20044;-68
2022/06/08 09:06:15;;;;;;;3.10;1.55;;;18.10;99.90;;;;;;5047959;28;20048;-68
2022/06/08 09:08:43;;;;;;;2.85;1.42;;;18.10;99.90;;;;;;5050000;28;20097;-68
2022/06/08 09:11:22;;;;;;;5.68;1.80;;;18.20;99.90;;;;;;5067643;28;20496;-68
2022/06/08 09:13:48;;;;;;;3.83;1.50;;;18.30;99.90;;;;;;5043961;28;20113;-68
2022/06/08 09:16:45;;;;;;;3.08;1.63;;;18.30;99.90;;;;;;5042355;28;20044;-68
2022/06/08 09:19:32;;;;;;;4.65;1.70;;;18.30;99.90;;;;;;5064343;28;20040;-68
2022/06/08 09:22:21;;;;;;;2.90;1.65;;;18.20;99.90;;;;;;5063520;28;20041;-69
2022/06/08 09:25:00;;;;;;;4.38;1.52;;;18.20;99.90;;;;;;5043266;28;20417;-68
2022/06/08 09:27:33;;;;;;;5.25;1.45;;;18.20;99.90;;;;;;5061806;28;20419;-68
2022/06/08 09:30:05;;;;;;;2.70;1.60;;;18.10;99.90;;;;;;5057429;28;20043;-68
2022/06/08 09:32:43;;;;;;;3.95;1.50;;;18.10;99.90;;;;;;5062920;28;20063;-68
2022/06/08 09:35:27;;;;;;;3.55;1.63;;;18.20;99.90;;;;;;5042938;28;20094;-68
2022/06/08 09:38:04;;;;;;;4.53;1.90;;;18.30;99.90;;;;;;5020229;28;20040;-68
2022/06/08 09:40:50;;;;;;;2.88;1.80;;;18.30;99.90;;;;;;5065528;28;20066;-68
2022/06/08 09:43:50;;;;;;;3.30;1.90;;;18.40;99.90;;;;;;5058725;28;20157;-68
2022/06/08 09:52:59;;;;;;;3.35;1.50;;;18.40;99.90;;;;;;5059087;28;20040;-68
2022/06/08 09:55:39;;;;;;;2.97;1.45;;;18.60;99.90;;;;;;5056453;28;20044;-68
2022/06/08 09:58:30;;;;;;;2.70;1.55;;;18.70;99.90;;;;;;5069074;28;20436;-68
2022/06/08 10:01:25;;;;;;;2.88;1.67;;;18.80;99.90;;;;;;5041400;28;20055;-68
2022/06/08 10:04:18;;;;;;;4.20;1.77;;;19.00;99.90;;;;;;5044559;28;20068;-69
2022/06/08 10:06:43;;;;;;;3.72;1.75;;;19.00;99.90;;;;;;5059597;28;20080;-69
2022/06/08 10:09:34;;;;;;;2.55;1.83;;;19.10;99.90;;;;;;5067873;28;20087;-68
2022/06/08 10:12:00;;;;;;;4.40;1.60;;;19.20;99.90;;;;;;5046964;28;20393;-68
2022/06/08 10:14:43;;;;;;;3.47;2.00;;;19.30;99.90;;;;;;5039746;28;20045;-69
2022/06/08 10:17:27;;;;;;;3.60;1.83;;;19.30;99.90;;;;;;5041777;28;20409;-69
2022/06/08 10:20:14;;;;;;;3.75;2.00;;;19.40;99.90;;;;;;5047369;28;20043;-68
2022/06/08 10:22:45;;;;;;;3.85;2.35;;;19.50;99.90;;;;;;5059373;28;20041;-68
2022/06/08 10:25:31;;;;;;;3.03;1.90;;;19.50;99.90;;;;;;5034270;28;20389;-68
2022/06/08 10:28:12;;;;;;;3.83;2.15;;;19.50;99.90;;;;;;5042820;28;20127;-68
2022/06/08 10:30:54;;;;;;;2.47;1.50;;;19.50;99.90;;;;;;5053863;28;20440;-69
2022/06/08 10:33:25;;;;;;;3.92;1.92;;;19.40;99.90;;;;;;5052611;28;20037;-68
2022/06/08 10:35:55;;;;;;;3.83;1.80;;;19.40;99.90;;;;;;5054571;28;20462;-68
2022/06/08 10:38:27;;;;;;;3.83;2.20;;;19.30;99.90;;;;;;5057386;28;20040;-69
2022/06/08 10:40:59;;;;;;;3.45;2.10;;;19.20;99.90;;;;;;5061894;28;20048;-69
2022/06/08 10:43:31;;;;;;;4.93;2.83;;;19.10;99.90;;;;;;5061419;28;20072;-68
2022/06/08 10:46:03;;;;;;;6.72;3.33;;;18.90;99.90;;;;;;5062678;28;20132;-69
2022/06/08 10:48:36;;;;;;;6.90;3.80;;;18.70;99.90;;;;;;5040496;28;20083;-69
2022/06/08 10:51:24;;;;;;;7.28;3.95;;;18.50;99.90;;;;;;5068545;28;20627;-69
2022/06/08 10:56:36;;;;;;;;;;;18.20;99.90;;;;;;5065265;28;20489;-68
2022/06/08 10:59:08;;;;;;;4.55;2.55;;;18.10;99.90;;;;;;5034160;28;19924;-69
2022/06/08 11:01:47;;;;;;;3.92;2.40;;;18.00;99.90;;;;;;5060449;28;20041;-69
2022/06/08 11:04:31;;;;;;;4.22;2.50;;;17.90;99.90;;;;;;5057006;28;20398;-70
2022/06/08 11:07:17;;;;;;;3.40;2.20;;;17.80;99.90;;;;;;5060808;28;20725;-69
2022/06/08 11:09:47;;;;;;;4.32;2.40;;;17.80;99.90;;;;;;5060104;28;20040;-70
2022/06/08 11:12:12;;;;;;;5.60;2.70;;;17.70;99.90;;;;;;5044488;28;20109;-69
2022/06/08 11:14:47;;;;;;;4.72;2.58;;;17.70;99.90;;;;;;5056074;28;20037;-69
2022/06/08 11:17:35;;;;;;;9.13;3.30;;;17.70;99.90;;;;;;5062515;28;20036;-70
2022/06/08 11:20:14;;;;;;;4.68;3.17;;;17.70;99.90;;;;;;5043777;28;20330;-69
2022/06/08 11:23:01;;;;;;;4.47;2.90;;;17.70;99.90;;;;;;5024996;28;20367;-71
2022/06/08 11:26:02;;;;;;;5.15;3.60;;;17.70;99.90;;;;;;5045422;28;20098;-69
2022/06/08 11:28:59;;;;;;;6.90;3.95;;;17.70;99.90;;;;;;5065797;28;20261;-69
2022/06/08 11:31:28;;;;;;;5.73;3.33;;;17.70;99.90;;;;;;5047979;28;20056;-69
2022/06/08 11:34:08;;;;;;;5.25;3.38;;;17.70;99.90;;;;;;5054840;28;20303;-69
2022/06/08 11:36:40;;;;;;;6.97;4.10;;;17.70;99.90;;;;;;5069901;28;20037;-69
2022/06/08 11:39:21;;;;;;;8.73;3.92;;;17.70;99.90;;;;;;5062298;28;20517;-69
2022/06/08 11:42:01;;;;;;;6.78;3.25;;;17.70;99.90;;;;;;5061864;28;20489;-69
2022/06/08 11:44:33;;;;;;;10.35;4.22;;;17.70;99.90;;;;;;5023832;28;20041;-69
2022/06/08 11:47:12;;;;;;;4.93;3.15;;;17.70;99.90;;;;;;5062544;28;20119;-69
2022/06/08 11:49:39;;;;;;;7.80;4.05;;;17.80;99.90;;;;;;5038301;28;20037;-69
2022/06/08 11:52:28;;;;;;;5.75;3.53;;;17.90;99.90;;;;;;5063140;28;20132;-69
2022/06/08 11:55:16;;;;;;;6.50;3.88;;;18.00;99.90;;;;;;5062364;28;20040;-69
2022/06/08 11:57:55;;;;;;;7.00;3.67;;;18.10;99.90;;;;;;5065008;28;20416;-70
2022/06/08 12:00:35;;;;;;;7.97;4.57;;;18.30;99.90;;;;;;5057563;28;20539;-69
2022/06/08 12:03:16;;;;;;;6.45;4.35;;;18.40;99.90;;;;;;5022721;28;20382;-69
2022/06/08 12:05:46;;;;;;;9.25;4.45;;;18.50;99.90;;;;;;5058744;28;20421;-69
2022/06/08 12:08:23;;;;;;;7.63;4.18;;;18.60;99.90;;;;;;5056533;28;20045;-69
2022/06/08 12:10:48;;;;;;;7.05;3.90;;;18.70;99.90;;;;;;5035744;28;20056;-69
2022/06/08 12:13:21;;;;;;;7.32;3.70;;;18.80;99.90;;;;;;5058062;28;20041;-69
2022/06/08 12:15:52;;;;;;;8.60;3.63;;;18.80;99.90;;;;;;5065836;28;20048;-69
2022/06/08 12:18:29;;;;;;;5.38;3.03;;;18.80;99.90;;;;;;5066242;28;20055;-70
2022/06/08 12:21:07;;;;;;;5.32;3.50;;;18.80;99.90;;;;;;5056667;28;20039;-69
2022/06/08 12:23:40;;;;;;;6.63;3.30;;;18.70;99.90;;;;;;5063568;28;20063;-69
2022/06/08 12:26:23;;;;;;;6.80;4.00;;;18.70;99.90;;;;;;5068564;28;20097;-69
2022/06/08 12:29:13;;;;;;;8.57;4.20;;;18.70;99.90;;;;;;5041240;28;20066;-69
2022/06/08 12:31:43;;;;;;;5.13;3.58;;;18.60;99.90;;;;;;5056777;28;20158;-69
2022/06/08 12:34:38;;;;;;;6.22;3.50;;;18.60;99.90;;;;;;5069593;28;20450;-70
2022/06/08 12:39:39;;;;;;;4.18;3.13;;;18.50;99.90;;;;;;5049759;28;20048;-72
2022/06/08 12:42:53;;;;;;;4.88;3.70;;;18.40;99.90;;;;;;5038843;28;20048;-70
2022/06/08 12:45:26;;;;;;;6.10;3.78;;;18.40;99.90;;;;;;5020104;28;20053;-70
2022/06/08 12:47:52;;;;;;;5.28;3.45;;;18.30;99.90;;;;;;5031384;28;20071;-70
2022/06/08 12:50:24;;;;;;;8.48;4.72;;;18.10;99.90;;;;;;5034548;28;20377;-70
2022/06/08 12:52:49;;;;;;;9.48;5.30;;;18.00;99.90;;;;;;5024273;28;20243;-71
2022/06/08 12:55:24;;;;;;;8.13;5.97;;;17.80;99.90;;;;;;5037808;28;20044;-71
2022/06/08 12:57:51;;;;;;;8.80;7.20;;;17.60;99.90;;;;;;5043163;28;20029;-70
2022/06/08 13:00:23;;;;;;;13.70;8.07;;;17.40;99.90;;;;;;5025361;28;20174;-70
2022/06/08 13:02:50;;;;;;;11.75;8.45;;;17.30;99.90;;;;;;5039030;28;20041;-71
2022/06/08 13:05:31;;;;;;;12.70;9.05;;;17.20;99.90;;;;;;5044733;28;20049;-70
2022/06/08 13:07:58;;;;;;;15.20;9.02;;;17.10;99.90;;;;;;5044315;28;20048;-70
2022/06/08 13:10:29;;;;;;;11.90;8.70;;;17.00;99.90;;;;;;5033120;28;20110;-71
2022/06/08 13:13:03;;;;;;;15.85;10.20;;;17.00;99.90;;;;;;5026201;28;20044;-70
2022/06/08 13:15:39;;;;;;;17.23;10.57;;;17.00;99.90;;;;;;5042954;28;20041;-70
2022/06/08 13:18:07;;;;;;;14.27;10.83;;;17.00;99.90;;;;;;5025957;28;20033;-71
2022/06/08 13:20:38;;;;;;;19.85;11.45;;;17.00;99.90;;;;;;5013539;28;20047;-70
2022/06/08 13:23:04;;;;;;;17.15;11.50;;;16.90;99.90;;;;;;5028330;28;20041;-70
2022/06/08 13:25:33;;;;;;;16.08;9.73;;;17.00;99.90;;;;;;5049840;28;20076;-70
2022/06/08 13:27:59;;;;;;;14.73;8.65;;;17.00;99.90;;;;;;5050354;28;20047;-70
2022/06/08 13:30:33;;;;;;;9.57;7.03;;;17.00;99.90;;;;;;5045641;28;20038;-70
2022/06/08 13:32:59;;;;;;;10.52;6.53;;;17.00;99.90;;;;;;5046581;28;20661;-70